Time;durP1;ratioP1;P1;durP2;ratioP2;P2;SDS_P1;SDS_P2;PMS_P1;PMS_P2;Temp;Humidity;BMP_temperature;BMP_pressure;BME280_temperature;BME280_humidity;BME280_pressure;Samples;Min_cycle;Max_cycle;Signal;HPM_P1;HPM_P2
2022/10/04 00:01:10;;;;;;;14.00;6.07;;;12.80;99.90;;;;;;5137400;27;20062;-83
2022/10/04 00:03:46;;;;;;;13.38;5.68;;;12.80;99.90;;;;;;5143045;27;20106;-82
2022/10/04 00:06:21;;;;;;;14.95;6.40;;;12.80;99.90;;;;;;5142836;27;20554;-83
2022/10/04 00:08:50;;;;;;;16.52;5.90;;;12.80;99.90;;;;;;5142165;27;20045;-83
2022/10/04 00:11:24;;;;;;;15.60;6.13;;;12.80;99.90;;;;;;5138851;27;20035;-83
2022/10/04 00:13:57;;;;;;;13.27;5.93;;;12.80;99.90;;;;;;5139831;27;20042;-82
2022/10/04 00:16:30;;;;;;;12.23;6.25;;;12.80;99.90;;;;;;5141962;27;20087;-83
2022/10/04 00:19:13;;;;;;;14.55;6.15;;;12.80;99.90;;;;;;5141918;27;20031;-83
2022/10/04 00:21:55;;;;;;;18.38;5.78;;;12.80;99.90;;;;;;5141866;27;20038;-82
2022/10/04 00:24:32;;;;;;;14.55;6.47;;;12.70;99.90;;;;;;5139270;27;20038;-83
2022/10/04 00:27:17;;;;;;;13.57;6.93;;;12.70;99.90;;;;;;5141346;27;20078;-82
2022/10/04 00:29:48;;;;;;;16.50;6.63;;;12.70;99.90;;;;;;5158507;27;20076;-82
2022/10/04 00:32:23;;;;;;;16.27;6.60;;;12.70;99.90;;;;;;5159016;27;20174;-82
2022/10/04 00:34:50;;;;;;;14.10;6.43;;;12.70;99.90;;;;;;5139077;27;20091;-83
2022/10/04 00:37:19;;;;;;;14.10;6.00;;;12.70;99.90;;;;;;5141347;27;20126;-83
2022/10/04 00:40:03;;;;;;;14.52;6.72;;;12.70;99.90;;;;;;5141440;27;20042;-83
2022/10/04 00:42:38;;;;;;;15.18;6.50;;;12.70;99.90;;;;;;5142161;27;20035;-83
2022/10/04 00:45:11;;;;;;;10.77;5.88;;;12.70;99.90;;;;;;5140698;27;20047;-83
2022/10/04 00:47:43;;;;;;;15.50;6.22;;;12.70;99.90;;;;;;5141050;27;20038;-82
2022/10/04 00:50:14;;;;;;;13.95;5.88;;;12.70;99.90;;;;;;5141006;27;20035;-83
2022/10/04 00:52:48;;;;;;;12.38;5.65;;;12.70;99.90;;;;;;5140383;27;20055;-83
2022/10/04 00:55:36;;;;;;;15.45;6.25;;;12.70;99.90;;;;;;5157450;27;20069;-83
2022/10/04 00:58:06;;;;;;;13.75;5.85;;;12.70;99.90;;;;;;5140150;27;20386;-83
2022/10/04 01:00:34;;;;;;;10.65;5.70;;;12.70;99.90;;;;;;5140245;27;20046;-82
2022/10/04 01:03:16;;;;;;;13.25;6.13;;;12.70;99.90;;;;;;5103550;27;20123;-82
2022/10/04 01:05:49;;;;;;;14.55;5.90;;;12.70;99.90;;;;;;5133475;27;20035;-83
2022/10/04 01:08:23;;;;;;;14.13;5.75;;;12.70;99.90;;;;;;5157031;27;20043;-82
2022/10/04 01:10:55;;;;;;;13.07;5.90;;;12.70;99.90;;;;;;5128770;27;20042;-83
2022/10/04 01:13:29;;;;;;;13.00;6.25;;;12.70;99.90;;;;;;5156887;27;20056;-83
2022/10/04 01:16:15;;;;;;;10.52;5.97;;;12.70;99.90;;;;;;5140428;27;20591;-83
2022/10/04 01:18:42;;;;;;;15.25;6.43;;;12.70;99.90;;;;;;5140679;27;20037;-83
2022/10/04 01:21:19;;;;;;;15.02;7.03;;;12.70;99.90;;;;;;5119616;27;20039;-82
2022/10/04 01:23:45;;;;;;;14.43;5.82;;;12.70;99.90;;;;;;5136954;27;20038;-83
2022/10/04 01:26:29;;;;;;;14.48;5.72;;;12.60;99.90;;;;;;5122802;27;20041;-83
2022/10/04 01:29:12;;;;;;;9.90;6.00;;;12.60;99.90;;;;;;5119849;27;20394;-82
2022/10/04 01:31:41;;;;;;;14.23;5.97;;;12.60;99.90;;;;;;5119757;27;20138;-84
2022/10/04 01:34:08;;;;;;;10.68;5.63;;;12.60;99.90;;;;;;5154596;27;20038;-83
2022/10/04 01:36:35;;;;;;;11.05;6.13;;;12.60;99.90;;;;;;5115971;27;20027;-83
2022/10/04 01:39:02;;;;;;;11.75;6.28;;;12.60;99.90;;;;;;5119598;27;20039;-83
2022/10/04 01:42:06;;;;;;;14.23;6.32;;;12.60;99.90;;;;;;5093207;27;20030;-83
2022/10/04 01:44:44;;;;;;;12.60;5.95;;;12.60;99.90;;;;;;5134172;27;20402;-83
2022/10/04 01:47:29;;;;;;;16.80;6.80;;;12.50;99.90;;;;;;5119589;27;20037;-82
2022/10/04 01:49:58;;;;;;;16.85;6.60;;;12.50;99.90;;;;;;5125589;27;20074;-83
2022/10/04 01:52:42;;;;;;;19.52;6.60;;;12.50;99.90;;;;;;5111800;27;20465;-83
2022/10/04 01:55:47;;;;;;;12.07;6.20;;;12.50;99.90;;;;;;5130743;27;20039;-83
2022/10/04 01:58:19;;;;;;;17.63;7.65;;;12.30;99.90;;;;;;5084025;28;20113;-83
2022/10/04 02:00:53;;;;;;;13.38;6.50;;;12.40;99.90;;;;;;5118446;27;20388;-83
2022/10/04 02:03:37;;;;;;;13.63;6.75;;;12.40;99.90;;;;;;5138824;27;20375;-83
2022/10/04 02:06:06;;;;;;;17.85;7.57;;;12.40;99.90;;;;;;5137063;27;20035;-83
2022/10/04 02:08:37;;;;;;;16.20;7.22;;;12.30;99.90;;;;;;5121069;27;20046;-83
2022/10/04 02:11:05;;;;;;;11.18;6.72;;;12.30;99.90;;;;;;5152005;27;20168;-83
2022/10/04 02:13:38;;;;;;;11.63;6.50;;;12.20;99.90;;;;;;5122292;27;20484;-82
2022/10/04 02:16:10;;;;;;;9.45;6.18;;;12.20;99.90;;;;;;5139480;27;20126;-83
2022/10/04 02:18:38;;;;;;;16.30;7.13;;;12.10;99.90;;;;;;5133197;27;20032;-82
2022/10/04 02:21:06;;;;;;;14.90;7.40;;;12.20;99.90;;;;;;5139227;27;20054;-83
2022/10/04 02:23:34;;;;;;;12.93;7.07;;;12.10;99.90;;;;;;5138603;27;20042;-83
2022/10/04 02:26:07;;;;;;;16.00;7.07;;;12.10;99.90;;;;;;5129666;27;20035;-83
2022/10/04 02:28:35;;;;;;;19.60;7.47;;;12.00;99.90;;;;;;5130790;27;20405;-83
2022/10/04 02:33:49;;;;;;;17.05;7.05;;;12.00;99.90;;;;;;5155468;27;20035;-83
2022/10/04 02:36:17;;;;;;;16.55;7.47;;;11.90;99.90;;;;;;5155524;27;20034;-83
2022/10/04 02:39:08;;;;;;;14.93;6.88;;;11.90;99.90;;;;;;5137745;27;20474;-83
2022/10/04 02:42:02;;;;;;;12.48;6.75;;;11.90;99.90;;;;;;5138302;27;20086;-83
2022/10/04 02:44:57;;;;;;;13.02;6.38;;;11.80;99.90;;;;;;5121471;27;20086;-83
2022/10/04 02:47:28;;;;;;;14.27;6.78;;;11.80;99.90;;;;;;5116037;27;20486;-82
2022/10/04 02:50:00;;;;;;;12.43;6.97;;;11.70;99.90;;;;;;5131403;27;20039;-82
2022/10/04 02:52:42;;;;;;;12.57;7.05;;;11.70;99.90;;;;;;5137516;27;20039;-83
2022/10/04 02:55:26;;;;;;;11.32;6.20;;;11.70;99.90;;;;;;5120613;27;20046;-82
2022/10/04 02:57:53;;;;;;;16.13;7.70;;;11.70;99.90;;;;;;5137880;27;20070;-83
2022/10/04 03:00:26;;;;;;;14.43;7.47;;;11.70;99.90;;;;;;5136540;27;20038;-82
2022/10/04 03:03:10;;;;;;;11.23;6.90;;;11.60;99.90;;;;;;5136575;27;20118;-82
2022/10/04 03:05:37;;;;;;;14.65;7.00;;;11.60;99.90;;;;;;5120450;27;20050;-83
2022/10/04 03:08:04;;;;;;;17.60;7.90;;;11.50;99.90;;;;;;5117590;27;20061;-83
2022/10/04 03:10:31;;;;;;;14.60;7.60;;;11.50;99.90;;;;;;5134356;27;20209;-83
2022/10/04 03:12:57;;;;;;;16.88;7.93;;;11.50;99.90;;;;;;5128699;27;20041;-83
2022/10/04 03:15:23;;;;;;;16.38;8.18;;;11.50;99.90;;;;;;5120692;27;20031;-83
2022/10/04 03:17:49;;;;;;;15.90;7.32;;;11.50;99.90;;;;;;5137275;27;20038;-83
2022/10/04 03:20:20;;;;;;;18.17;7.50;;;11.50;99.90;;;;;;5109388;27;20035;-83
2022/10/04 03:22:52;;;;;;;11.88;7.40;;;11.40;99.90;;;;;;5137143;27;20042;-82
2022/10/04 03:25:21;;;;;;;14.60;7.15;;;11.40;99.90;;;;;;5137749;27;20038;-82
2022/10/04 03:27:49;;;;;;;16.00;6.63;;;11.40;99.90;;;;;;5154425;27;20038;-82
2022/10/04 03:30:19;;;;;;;15.30;7.53;;;11.30;99.90;;;;;;5120998;27;20038;-83
2022/10/04 03:32:45;;;;;;;11.70;6.97;;;11.30;99.90;;;;;;5121734;27;20123;-83
2022/10/04 03:35:33;;;;;;;12.93;7.15;;;11.30;99.90;;;;;;5105404;27;20038;-83
2022/10/04 03:38:03;;;;;;;15.45;7.00;;;11.30;99.90;;;;;;5137661;27;20112;-82
2022/10/04 03:40:31;;;;;;;13.70;6.70;;;11.40;99.90;;;;;;5138913;27;20034;-83
2022/10/04 03:42:59;;;;;;;12.57;6.95;;;11.20;99.90;;;;;;5138821;27;20079;-83
2022/10/04 03:45:27;;;;;;;15.18;7.35;;;11.20;99.90;;;;;;5155745;27;20042;-83
2022/10/04 03:47:57;;;;;;;14.10;6.70;;;11.20;99.90;;;;;;5128423;27;20071;-82
2022/10/04 03:50:33;;;;;;;11.55;6.57;;;11.20;99.90;;;;;;5146056;27;20067;-83
2022/10/04 03:53:31;;;;;;;12.05;6.88;;;11.20;99.90;;;;;;5174490;27;20062;-83
2022/10/04 03:55:58;;;;;;;11.63;6.82;;;11.10;99.90;;;;;;5139343;27;21645;-83
2022/10/04 03:58:25;;;;;;;12.93;7.18;;;11.10;99.90;;;;;;5118722;27;20042;-83
2022/10/04 04:00:59;;;;;;;13.90;7.22;;;11.00;99.90;;;;;;5138650;27;20401;-83
2022/10/04 04:03:28;;;;;;;20.58;7.47;;;11.00;99.90;;;;;;5132624;27;20091;-83
2022/10/04 04:05:58;;;;;;;16.38;7.18;;;11.00;99.90;;;;;;5116605;28;20035;-83
2022/10/04 04:08:35;;;;;;;14.48;6.75;;;11.00;99.90;;;;;;5117409;28;20172;-83
2022/10/04 04:11:03;;;;;;;14.85;8.05;;;11.00;99.90;;;;;;5134323;28;20040;-83
2022/10/04 04:13:59;;;;;;;12.77;7.53;;;11.00;99.90;;;;;;5150632;27;20041;-82
2022/10/04 04:16:26;;;;;;;14.25;8.25;;;10.90;99.90;;;;;;5137077;27;20046;-83
2022/10/04 04:18:54;;;;;;;15.07;8.15;;;10.90;99.90;;;;;;5137086;27;20042;-83
2022/10/04 04:21:23;;;;;;;15.07;7.75;;;10.90;99.90;;;;;;5117087;28;20114;-82
2022/10/04 04:24:26;;;;;;;16.60;8.48;;;11.10;99.90;;;;;;5100251;28;20041;-82
2022/10/04 04:27:00;;;;;;;14.43;7.30;;;10.90;99.90;;;;;;5133489;28;20394;-82
2022/10/04 04:29:43;;;;;;;13.48;8.20;;;10.90;99.90;;;;;;5125772;27;20026;-83
2022/10/04 04:32:27;;;;;;;18.25;8.85;;;10.90;99.90;;;;;;5137201;27;20379;-82
2022/10/04 04:35:05;;;;;;;15.15;7.97;;;10.90;99.90;;;;;;5137200;27;20046;-82
2022/10/04 04:37:32;;;;;;;16.77;8.77;;;10.90;99.90;;;;;;5137852;27;20042;-82
2022/10/04 04:40:20;;;;;;;12.05;8.40;;;10.90;99.90;;;;;;5116089;28;20031;-83
2022/10/04 04:42:49;;;;;;;18.10;8.98;;;10.80;99.90;;;;;;5133748;28;20061;-83
2022/10/04 04:45:21;;;;;;;12.90;8.25;;;10.80;99.90;;;;;;5126360;27;20031;-83
2022/10/04 04:47:50;;;;;;;13.60;8.00;;;10.80;99.90;;;;;;5144477;27;20501;-83
2022/10/04 04:50:26;;;;;;;14.77;8.27;;;10.80;99.90;;;;;;5158490;27;20118;-83
2022/10/04 04:53:21;;;;;;;16.33;8.98;;;10.90;99.90;;;;;;5158558;27;20184;-84
2022/10/04 04:55:48;;;;;;;17.98;9.45;;;10.70;99.90;;;;;;5126681;27;20635;-83
2022/10/04 04:58:20;;;;;;;20.33;9.90;;;10.70;99.90;;;;;;5120732;27;20509;-82
2022/10/04 05:00:53;;;;;;;18.13;9.45;;;11.00;99.90;;;;;;5140639;27;20031;-82
2022/10/04 05:03:18;;;;;;;15.02;10.15;;;10.70;99.90;;;;;;5158062;27;20064;-82
2022/10/04 05:05:46;;;;;;;17.52;10.23;;;10.70;99.90;;;;;;5137752;27;20043;-82
2022/10/04 05:08:18;;;;;;;19.58;10.30;;;10.60;99.90;;;;;;5157785;27;20042;-82
2022/10/04 05:11:08;;;;;;;17.20;9.98;;;10.70;99.90;;;;;;5141036;27;20486;-81
2022/10/04 05:13:38;;;;;;;17.45;10.20;;;10.60;99.90;;;;;;5134049;27;20367;-83
2022/10/04 05:16:11;;;;;;;17.00;10.55;;;10.60;99.90;;;;;;5157203;27;20143;-83
2022/10/04 05:18:37;;;;;;;17.80;10.13;;;10.60;99.90;;;;;;5157632;27;20034;-82
2022/10/04 05:21:25;;;;;;;19.17;10.00;;;10.60;99.90;;;;;;5104539;27;20034;-83
2022/10/04 05:23:52;;;;;;;19.20;9.85;;;10.60;99.90;;;;;;5138331;27;20490;-82
2022/10/04 05:26:27;;;;;;;14.45;9.88;;;10.60;99.90;;;;;;5105451;27;20088;-82
2022/10/04 05:28:54;;;;;;;16.15;10.25;;;10.60;99.90;;;;;;5140330;27;20049;-82
2022/10/04 05:31:41;;;;;;;20.98;10.32;;;10.60;99.90;;;;;;5135140;27;20462;-82
2022/10/04 05:34:20;;;;;;;21.73;10.82;;;10.50;99.90;;;;;;5136031;27;20095;-82
2022/10/04 05:36:59;;;;;;;20.60;10.43;;;10.60;99.90;;;;;;5157063;27;20041;-82
2022/10/04 05:39:31;;;;;;;18.70;10.68;;;10.60;99.90;;;;;;5133009;27;20126;-83
2022/10/04 05:42:23;;;;;;;18.30;10.38;;;10.50;99.90;;;;;;5139907;27;20027;-82
2022/10/04 05:44:54;;;;;;;17.83;10.45;;;10.50;99.90;;;;;;5139428;27;20045;-82
2022/10/04 05:47:23;;;;;;;15.25;10.77;;;10.50;99.90;;;;;;5139708;27;20542;-83
2022/10/04 05:49:53;;;;;;;18.95;10.38;;;10.50;99.90;;;;;;5139058;27;20042;-82
2022/10/04 05:52:29;;;;;;;15.98;10.68;;;10.50;99.90;;;;;;5140213;27;20110;-82
2022/10/04 05:55:15;;;;;;;18.15;10.15;;;10.50;99.90;;;;;;5137479;27;20118;-82
2022/10/04 05:58:03;;;;;;;16.45;10.75;;;10.50;99.90;;;;;;5119735;27;20049;-82
2022/10/04 06:00:44;;;;;;;22.27;11.63;;;10.50;99.90;;;;;;5122291;27;20039;-82
2022/10/04 06:03:39;;;;;;;19.92;11.43;;;10.50;99.90;;;;;;5139821;27;20410;-81
2022/10/04 06:06:17;;;;;;;17.83;11.32;;;10.50;99.90;;;;;;5143202;27;20538;-82
2022/10/04 06:09:08;;;;;;;21.70;12.27;;;10.80;99.90;;;;;;5135618;27;20050;-82
2022/10/04 06:12:35;;;;;;;17.73;11.27;;;10.50;99.90;;;;;;5140157;27;20099;-83
2022/10/04 06:15:14;;;;;;;18.20;11.05;;;10.50;99.90;;;;;;5082536;27;20048;-83
2022/10/04 06:17:49;;;;;;;16.63;11.52;;;10.50;99.90;;;;;;5125373;27;20047;-82
2022/10/04 06:20:36;;;;;;;16.45;11.45;;;10.50;99.90;;;;;;5156260;27;20042;-82
2022/10/04 06:23:10;;;;;;;18.17;11.35;;;10.50;99.90;;;;;;5139481;27;20138;-83
2022/10/04 06:25:49;;;;;;;16.55;11.65;;;10.50;99.90;;;;;;5137118;27;20045;-80
2022/10/04 06:28:23;;;;;;;21.98;11.45;;;10.50;99.90;;;;;;5138563;27;20091;-81
2022/10/04 06:31:07;;;;;;;19.65;11.75;;;10.60;99.90;;;;;;5134346;27;20038;-81
2022/10/04 06:34:13;;;;;;;19.52;11.45;;;10.60;99.90;;;;;;5137702;27;20074;-80
2022/10/04 06:37:08;;;;;;;20.08;11.52;;;10.60;99.90;;;;;;5139981;27;20039;-80
2022/10/04 06:39:49;;;;;;;17.67;12.13;;;10.60;99.90;;;;;;5105764;27;20470;-83
2022/10/04 06:42:35;;;;;;;22.25;11.77;;;10.60;99.90;;;;;;5153496;27;20031;-82
2022/10/04 06:45:21;;;;;;;15.88;11.63;;;10.60;99.90;;;;;;5135995;27;20390;-81
2022/10/04 06:48:17;;;;;;;20.20;11.93;;;10.60;99.90;;;;;;5135867;27;20043;-83
2022/10/04 06:50:52;;;;;;;16.52;11.65;;;10.60;99.90;;;;;;5118792;27;20062;-82
2022/10/04 06:53:29;;;;;;;16.20;11.90;;;10.60;99.90;;;;;;5132804;27;20054;-83
2022/10/04 06:56:13;;;;;;;17.70;12.40;;;10.60;99.90;;;;;;5138396;27;20043;-82
2022/10/04 06:58:52;;;;;;;17.50;12.70;;;10.70;99.90;;;;;;5155826;27;20125;-82
2022/10/04 07:01:33;;;;;;;16.42;12.00;;;10.70;99.90;;;;;;5138919;27;20413;-82
2022/10/04 07:04:02;;;;;;;19.85;12.05;;;10.70;99.90;;;;;;5138126;27;20042;-82
2022/10/04 07:06:46;;;;;;;20.15;13.25;;;10.70;99.90;;;;;;5146342;27;20051;-83
2022/10/04 07:09:23;;;;;;;24.15;13.10;;;10.80;99.90;;;;;;5134180;27;20046;-82
2022/10/04 07:12:07;;;;;;;18.63;14.43;;;10.80;99.90;;;;;;5116951;27;20387;-82
2022/10/04 07:14:37;;;;;;;20.05;14.27;;;10.90;99.90;;;;;;5132822;27;20494;-83
2022/10/04 07:17:14;;;;;;;20.10;14.50;;;11.00;99.90;;;;;;5138523;27;20046;-84
2022/10/04 07:19:48;;;;;;;19.63;14.68;;;11.00;99.90;;;;;;5119179;27;20068;-81
2022/10/04 07:22:41;;;;;;;21.02;14.93;;;11.10;99.90;;;;;;5127879;27;20390;-82
2022/10/04 07:25:26;;;;;;;19.63;14.93;;;11.20;99.90;;;;;;5135466;27;20038;-82
2022/10/04 07:31:13;;;;;;;21.83;15.52;;;11.30;99.90;;;;;;5155715;27;20167;-82
2022/10/04 07:33:47;;;;;;;18.75;14.57;;;11.40;99.90;;;;;;5142395;27;20039;-81
2022/10/04 07:36:17;;;;;;;21.20;15.15;;;11.50;99.90;;;;;;5139944;27;20075;-82
2022/10/04 07:38:49;;;;;;;23.42;15.45;;;11.60;99.90;;;;;;5139195;27;20031;-81
2022/10/04 07:41:22;;;;;;;19.35;13.95;;;11.70;99.90;;;;;;5156694;27;20041;-81
2022/10/04 07:43:57;;;;;;;22.90;14.25;;;11.80;99.90;;;;;;5152848;27;20031;-82
2022/10/04 07:46:44;;;;;;;21.02;14.30;;;11.90;99.90;;;;;;5118904;28;20046;-82
2022/10/04 07:49:16;;;;;;;25.00;14.18;;;12.00;99.90;;;;;;5135719;27;20035;-83
2022/10/04 07:52:04;;;;;;;22.50;12.50;;;12.20;99.90;;;;;;5120788;27;20417;-83
2022/10/04 07:54:43;;;;;;;21.98;13.75;;;12.20;99.90;;;;;;5157294;27;20554;-81
2022/10/04 07:57:27;;;;;;;21.45;12.30;;;12.40;99.90;;;;;;5140195;27;20114;-82
2022/10/04 08:00:11;;;;;;;20.33;12.13;;;12.40;99.90;;;;;;5139718;27;20039;-83
2022/10/04 08:03:00;;;;;;;18.20;12.27;;;12.40;99.90;;;;;;5140187;27;20360;-82
2022/10/04 08:05:44;;;;;;;17.42;12.02;;;12.50;99.90;;;;;;5157008;27;20050;-83
2022/10/04 08:08:13;;;;;;;15.95;10.70;;;12.50;99.90;;;;;;5137473;27;20493;-81
2022/10/04 08:10:56;;;;;;;18.15;11.65;;;12.50;99.90;;;;;;5138620;27;20043;-81
2022/10/04 08:13:59;;;;;;;16.08;11.27;;;12.50;99.90;;;;;;5119346;28;20046;-80
2022/10/04 08:16:35;;;;;;;19.05;12.32;;;12.60;99.90;;;;;;5139136;27;20054;-81
2022/10/04 08:19:24;;;;;;;18.90;11.77;;;12.60;99.90;;;;;;5135338;27;20092;-81
2022/10/04 08:22:16;;;;;;;20.30;11.57;;;12.70;99.90;;;;;;5118523;28;20054;-81
2022/10/04 08:25:07;;;;;;;18.77;12.40;;;12.80;99.90;;;;;;5126324;27;20394;-81
2022/10/04 08:31:08;;;;;;;14.05;10.35;;;13.00;99.90;;;;;;5151833;27;20038;-83
2022/10/04 08:34:10;;;;;;;17.80;11.32;;;13.10;99.90;;;;;;5143519;27;20031;-82
2022/10/04 08:37:02;;;;;;;20.42;10.90;;;13.20;99.90;;;;;;5120763;27;20079;-82
2022/10/04 08:39:52;;;;;;;17.52;11.38;;;13.30;99.90;;;;;;5153582;27;20096;-83
2022/10/04 08:42:40;;;;;;;14.23;11.45;;;13.40;99.90;;;;;;5124668;27;20039;-83
2022/10/04 08:45:37;;;;;;;15.55;10.68;;;13.40;99.90;;;;;;5123481;27;20038;-83
2022/10/04 08:48:45;;;;;;;16.50;10.80;;;13.40;99.90;;;;;;5142074;27;20030;-82
2022/10/04 08:51:50;;;;;;;11.18;9.23;;;13.40;99.90;;;;;;5160674;27;20042;-83
2022/10/04 08:54:34;;;;;;;14.90;9.38;;;13.30;99.90;;;;;;5142140;27;20057;-82
2022/10/04 08:57:14;;;;;;;15.13;9.20;;;13.30;99.90;;;;;;5147255;27;20035;-82
2022/10/04 09:00:22;;;;;;;12.27;9.27;;;13.30;99.90;;;;;;5131394;27;20043;-82
2022/10/04 09:03:25;;;;;;;16.70;9.57;;;13.20;99.90;;;;;;5112323;27;20096;-83
2022/10/04 09:06:25;;;;;;;12.00;9.43;;;13.20;99.90;;;;;;5141876;27;20038;-83
2022/10/04 09:09:12;;;;;;;17.00;9.43;;;13.20;99.90;;;;;;5128466;27;20059;-83
2022/10/04 09:11:50;;;;;;;19.95;10.32;;;13.30;99.90;;;;;;5121693;27;20074;-83
2022/10/04 09:14:48;;;;;;;15.23;10.18;;;13.30;99.90;;;;;;5120727;27;20053;-84
2022/10/04 09:17:54;;;;;;;16.88;10.18;;;13.40;99.90;;;;;;5120953;27;20035;-83
2022/10/04 09:20:20;;;;;;;13.63;9.32;;;13.60;99.90;;;;;;5090302;27;20047;-83
2022/10/04 09:22:48;;;;;;;14.57;9.68;;;13.60;99.90;;;;;;5138343;27;20118;-83
2022/10/04 09:25:22;;;;;;;17.92;9.55;;;13.70;99.90;;;;;;5123241;27;20031;-83
2022/10/04 09:28:26;;;;;;;14.00;8.98;;;13.80;99.90;;;;;;5158113;27;20490;-83
2022/10/04 09:31:28;;;;;;;13.43;8.07;;;13.90;99.90;;;;;;5140411;27;20053;-83
2022/10/04 09:34:22;;;;;;;15.30;8.70;;;13.90;99.90;;;;;;5157417;27;20038;-83
2022/10/04 09:37:18;;;;;;;16.05;8.82;;;14.00;99.90;;;;;;5156808;27;20034;-83
2022/10/04 09:40:40;;;;;;;11.77;7.68;;;14.20;99.90;;;;;;5120216;27;20071;-83
2022/10/04 09:43:41;;;;;;;14.45;7.82;;;14.20;99.90;;;;;;5137184;27;20483;-83
2022/10/04 09:46:27;;;;;;;11.15;7.32;;;14.30;99.90;;;;;;5128761;27;20043;-84
2022/10/04 09:49:07;;;;;;;17.40;8.55;;;14.40;99.90;;;;;;5140070;27;20039;-83
2022/10/04 09:52:07;;;;;;;13.15;8.07;;;14.40;99.90;;;;;;5157509;27;20125;-82
2022/10/04 09:55:03;;;;;;;10.48;7.28;;;14.40;99.90;;;;;;5141420;27;20405;-81
2022/10/04 09:58:08;;;;;;;13.90;7.28;;;14.50;99.90;;;;;;5138813;27;20482;-81
2022/10/04 10:01:00;;;;;;;14.48;7.18;;;14.60;99.90;;;;;;5135633;27;20505;-81
2022/10/04 10:03:53;;;;;;;12.25;7.40;;;14.60;99.90;;;;;;5114102;27;20095;-82
2022/10/04 10:06:40;;;;;;;13.15;8.05;;;14.50;99.90;;;;;;5139819;27;20035;-81
2022/10/04 10:09:21;;;;;;;13.27;8.18;;;14.50;99.90;;;;;;5156950;27;20049;-81
2022/10/04 10:15:21;;;;;;;13.45;7.40;;;14.60;99.90;;;;;;5145236;27;20043;-80
2022/10/04 10:18:26;;;;;;;17.17;7.93;;;14.60;99.90;;;;;;5129677;27;20042;-80
2022/10/04 10:21:14;;;;;;;14.50;7.85;;;14.70;99.90;;;;;;5131398;27;20443;-79
2022/10/04 10:23:58;;;;;;;11.82;6.95;;;15.10;99.90;;;;;;5156198;27;20064;-79
2022/10/04 10:26:44;;;;;;;11.90;7.00;;;15.70;99.90;;;;;;5139037;27;20100;-82
2022/10/04 10:29:15;;;;;;;15.57;7.38;;;15.90;99.90;;;;;;5127705;27;20058;-79
2022/10/04 10:31:56;;;;;;;9.52;6.82;;;15.80;99.90;;;;;;5137016;27;20435;-81
2022/10/04 10:34:46;;;;;;;13.75;7.45;;;15.60;99.90;;;;;;5138822;27;20074;-81
2022/10/04 10:37:47;;;;;;;14.13;8.10;;;15.40;99.90;;;;;;5138888;27;20042;-83
2022/10/04 10:40:45;;;;;;;15.40;7.85;;;15.30;99.90;;;;;;5136389;27;20062;-82
2022/10/04 10:43:40;;;;;;;14.50;7.93;;;15.20;99.90;;;;;;5151115;27;20043;-82
2022/10/04 10:46:09;;;;;;;12.65;7.30;;;15.10;99.90;;;;;;5096122;27;20479;-82
2022/10/04 10:48:50;;;;;;;11.00;7.15;;;15.10;99.90;;;;;;5118052;27;20035;-82
2022/10/04 10:51:26;;;;;;;14.77;7.60;;;15.20;99.90;;;;;;5128848;27;20090;-81
2022/10/04 10:53:51;;;;;;;12.90;7.45;;;15.20;99.90;;;;;;5137989;27;20411;-81
2022/10/04 10:56:42;;;;;;;13.15;8.10;;;15.20;99.90;;;;;;5137354;27;20041;-82
2022/10/04 10:59:40;;;;;;;13.90;8.50;;;15.20;99.90;;;;;;5138936;27;20130;-81
2022/10/04 11:02:35;;;;;;;15.45;9.27;;;15.20;99.90;;;;;;5130208;27;20494;-82
2022/10/04 11:05:47;;;;;;;12.57;7.72;;;15.20;99.90;;;;;;5130396;27;20049;-82
2022/10/04 11:09:00;;;;;;;13.48;7.95;;;15.30;99.90;;;;;;5118963;27;20078;-80
2022/10/04 11:11:44;;;;;;;10.77;7.82;;;15.40;99.90;;;;;;5063333;27;20515;-80
2022/10/04 11:14:48;;;;;;;12.75;8.00;;;15.40;99.90;;;;;;5125803;27;20085;-81
2022/10/04 11:17:27;;;;;;;14.68;8.60;;;15.50;99.90;;;;;;5116316;27;20428;-81
2022/10/04 11:20:30;;;;;;;16.50;8.80;;;15.60;99.90;;;;;;5138318;27;20082;-82
2022/10/04 11:23:30;;;;;;;12.88;8.50;;;15.60;99.90;;;;;;5155382;27;20069;-81
2022/10/04 11:26:23;;;;;;;14.73;8.73;;;15.60;99.90;;;;;;5138579;27;20038;-82
2022/10/04 11:29:11;;;;;;;12.20;7.05;;;15.70;99.90;;;;;;5138476;27;20038;-82
2022/10/04 11:31:54;;;;;;;12.40;7.55;;;15.80;99.90;;;;;;5124632;27;20035;-82
2022/10/04 11:34:58;;;;;;;11.68;7.55;;;15.80;99.90;;;;;;5137672;27;20038;-81
2022/10/04 11:38:18;;;;;;;14.43;7.70;;;15.80;99.90;;;;;;5138015;27;20034;-81
2022/10/04 11:41:13;;;;;;;12.93;6.45;;;15.90;99.90;;;;;;5099546;27;20504;-83
2022/10/04 11:43:45;;;;;;;11.75;6.53;;;16.00;99.90;;;;;;5147907;27;20095;-82
2022/10/04 11:46:54;;;;;;;12.00;6.13;;;16.20;99.90;;;;;;5138838;27;20039;-81
2022/10/04 11:49:55;;;;;;;11.40;6.38;;;16.30;99.90;;;;;;5155264;27;20517;-81
2022/10/04 11:53:02;;;;;;;12.25;6.07;;;16.30;99.90;;;;;;5137286;27;20034;-82
2022/10/04 11:55:53;;;;;;;10.57;5.65;;;16.30;99.90;;;;;;5139122;27;20039;-82
2022/10/04 11:58:33;;;;;;;13.20;5.32;;;16.30;99.90;;;;;;5161010;27;20041;-82
2022/10/04 12:01:21;;;;;;;17.60;6.20;;;16.30;99.90;;;;;;5161447;27;20503;-81
2022/10/04 12:04:25;;;;;;;11.40;5.63;;;16.40;99.90;;;;;;5130959;27;20099;-81
2022/10/04 12:06:52;;;;;;;12.18;5.35;;;16.40;99.90;;;;;;5144286;27;20038;-81
2022/10/04 12:09:51;;;;;;;15.25;6.38;;;16.60;99.90;;;;;;5144391;27;20034;-82
2022/10/04 12:12:36;;;;;;;12.73;5.70;;;16.60;99.90;;;;;;5139398;27;20031;-82
2022/10/04 12:15:21;;;;;;;13.90;6.30;;;16.60;99.90;;;;;;5151452;27;20035;-82
2022/10/04 12:18:13;;;;;;;10.73;6.10;;;16.70;99.90;;;;;;5142834;27;20043;-82
2022/10/04 12:21:01;;;;;;;8.68;5.35;;;16.70;99.90;;;;;;5140783;27;20535;-83
2022/10/04 12:23:28;;;;;;;11.55;5.25;;;16.70;99.90;;;;;;5160254;27;20078;-82
2022/10/04 12:26:18;;;;;;;14.27;5.35;;;16.70;99.90;;;;;;5148401;27;20054;-81
2022/10/04 12:29:03;;;;;;;7.50;4.65;;;16.70;99.90;;;;;;5138676;27;20060;-82
2022/10/04 12:31:40;;;;;;;12.40;4.22;;;16.70;99.90;;;;;;5128967;27;20038;-81
2022/10/04 12:34:13;;;;;;;7.68;4.13;;;16.80;99.90;;;;;;5151587;27;20554;-81
2022/10/04 12:36:58;;;;;;;10.32;4.05;;;16.80;99.90;;;;;;5139129;27;20046;-81
2022/10/04 12:39:29;;;;;;;9.02;4.10;;;16.80;99.90;;;;;;5141166;27;20062;-82
2022/10/04 12:42:05;;;;;;;9.10;5.45;;;16.80;99.90;;;;;;5159269;27;20039;-82
2022/10/04 12:44:49;;;;;;;9.07;3.80;;;16.80;99.90;;;;;;5159965;27;20056;-81
2022/10/04 12:47:33;;;;;;;6.32;3.22;;;16.80;99.90;;;;;;5136122;27;20038;-82
2022/10/04 12:50:27;;;;;;;8.65;3.63;;;16.80;99.90;;;;;;5143760;27;20098;-82
2022/10/04 12:53:30;;;;;;;9.10;3.80;;;16.90;99.90;;;;;;5136661;27;20050;-82
2022/10/04 12:56:20;;;;;;;6.43;3.38;;;17.00;99.90;;;;;;5153955;27;20494;-81
2022/10/04 12:58:49;;;;;;;9.70;4.28;;;17.00;99.90;;;;;;5132647;27;20046;-81
2022/10/04 13:01:39;;;;;;;11.10;3.50;;;17.00;99.90;;;;;;5144077;27;20027;-81
2022/10/04 13:04:13;;;;;;;8.73;3.60;;;17.00;99.90;;;;;;5140966;27;20117;-82
2022/10/04 13:07:02;;;;;;;8.70;3.70;;;17.00;99.90;;;;;;5139313;27;20079;-82
2022/10/04 13:09:49;;;;;;;6.03;3.30;;;17.10;99.90;;;;;;5138182;27;20065;-81
2022/10/04 13:12:53;;;;;;;6.57;3.92;;;17.20;99.90;;;;;;5139218;27;20034;-82
2022/10/04 13:15:32;;;;;;;7.25;3.47;;;17.20;99.90;;;;;;5128609;27;20055;-80
2022/10/04 13:18:11;;;;;;;11.93;4.40;;;17.30;99.90;;;;;;5130073;27;20039;-81
2022/10/04 13:20:40;;;;;;;5.38;2.92;;;17.20;99.90;;;;;;5154535;27;20110;-81
2022/10/04 13:23:47;;;;;;;8.63;3.67;;;17.30;99.90;;;;;;5139732;27;20082;-81
2022/10/04 13:26:45;;;;;;;6.60;3.40;;;17.40;99.90;;;;;;5160814;27;20070;-80
2022/10/04 13:29:42;;;;;;;5.75;3.20;;;17.50;99.90;;;;;;5127886;27;20042;-81
2022/10/04 13:32:26;;;;;;;9.02;3.55;;;17.60;99.90;;;;;;5129740;27;20087;-81
2022/10/04 13:35:16;;;;;;;6.13;3.25;;;17.60;99.90;;;;;;5152848;27;20050;-82
2022/10/04 13:37:55;;;;;;;5.60;2.60;;;17.60;99.90;;;;;;5135749;27;20505;-82
2022/10/04 13:40:34;;;;;;;8.85;2.90;;;17.60;99.90;;;;;;5137261;27;20066;-81
2022/10/04 13:43:34;;;;;;;5.95;2.80;;;17.60;99.90;;;;;;5149733;27;20144;-81
2022/10/04 13:46:35;;;;;;;7.18;2.92;;;17.60;99.90;;;;;;5138241;27;20030;-81
2022/10/04 13:49:27;;;;;;;5.65;3.00;;;17.50;99.90;;;;;;5156621;27;20062;-81
2022/10/04 13:58:07;;;;;;;9.52;2.65;;;17.60;99.90;;;;;;5152431;27;20045;-82
2022/10/04 14:01:01;;;;;;;3.97;2.40;;;17.70;99.90;;;;;;5132041;27;20135;-81
2022/10/04 14:03:48;;;;;;;6.20;2.47;;;17.70;99.90;;;;;;5135951;27;20058;-81
2022/10/04 14:06:45;;;;;;;5.65;2.92;;;17.60;99.90;;;;;;5126686;27;20478;-81
2022/10/04 14:09:25;;;;;;;4.95;2.60;;;17.60;99.90;;;;;;5133117;27;20034;-81